Time;durP1;ratioP1;P1;durP2;ratioP2;P2;SDS_P1;SDS_P2;PMS_P1;PMS_P2;Temp;Humidity;BMP_temperature;BMP_pressure;BME280_temperature;BME280_humidity;BME280_pressure;Samples;Min_cycle;Max_cycle;Signal;HPM_P1;HPM_P2
2023/03/21 00:01:56;;;;;;;;;;;;;;;-140.72;100.00;53007.75;5046939;28;20272;-69
2023/03/21 00:04:22;;;;;;;;;;;;;;;-140.72;100.00;53062.56;5029997;28;19927;-69
2023/03/21 00:06:47;;;;;;;;;;;;;;;-140.72;100.00;53009.78;5046882;28;19968;-69
2023/03/21 00:09:13;;;;;;;;;;;;;;;-140.72;100.00;53048.34;5027086;28;19967;-69
2023/03/21 00:11:38;;;;;;;;;;;;;;;-140.72;100.00;53056.47;5030226;28;19986;-69
2023/03/21 00:14:04;;;;;;;;;;;;;;;-140.72;100.00;53026.03;5063395;28;19921;-69
2023/03/21 00:16:29;;;;;;;;;;;;;;;-140.72;100.00;53034.16;5043530;28;19927;-69
2023/03/21 00:18:56;;;;;;;;;;;;;;;-140.72;100.00;53038.19;5045778;28;20007;-69
2023/03/21 00:21:27;;;;;;;;;;;;;;;-140.72;100.00;53032.13;5066240;28;19977;-69
2023/03/21 00:23:53;;;;;;;;;;;;;;;-140.72;100.00;53036.16;5049946;28;20379;-69
2023/03/21 00:26:18;;;;;;;;;;;;;;;-140.72;100.00;53052.41;5066174;28;19921;-69
2023/03/21 00:28:43;;;;;;;;;;;;;;;-140.72;100.00;53062.56;5066929;28;19921;-69
2023/03/21 00:31:09;;;;;;;;;;;;;;;-140.72;100.00;53040.22;5050286;28;19928;-69
2023/03/21 00:33:34;;;;;;;;;;;;;;;-140.72;100.00;53030.09;5067487;28;19974;-69
2023/03/21 00:36:00;;;;;;;;;;;;;;;-140.72;100.00;53078.78;5068551;28;19921;-69
2023/03/21 00:38:25;;;;;;;;;;;;;;;-140.72;100.00;53097.06;5067720;28;20369;-69
2023/03/21 00:40:51;;;;;;;;;;;;;;;-140.72;100.00;53046.31;5065725;28;19921;-69
2023/03/21 00:43:18;;;;;;;;;;;;;;;-140.72;100.00;53048.34;5050129;28;19925;-69
2023/03/21 00:45:44;;;;;;;;;;;;;;;-140.72;100.00;53024.00;5049304;28;20602;-70
2023/03/21 00:48:09;;;;;;;;;;;;;;;-140.72;100.00;53046.31;5066855;28;19920;-69
2023/03/21 00:50:35;;;;;;;;;;;;;;;-140.72;100.00;53048.34;5069097;28;19924;-69
2023/03/21 00:53:00;;;;;;;;;;;;;;;-140.72;100.00;53015.88;5072834;28;19920;-69
2023/03/21 00:55:26;;;;;;;;;;;;;;;-140.72;100.00;53042.25;5053961;28;19931;-69
2023/03/21 00:57:51;;;;;;;;;;;;;;;-140.72;100.00;53024.00;5056924;28;19924;-69
2023/03/21 01:00:16;;;;;;;;;;;;;;;-140.72;100.00;53032.13;5066632;28;19938;-69
2023/03/21 01:02:56;;;;;;;;;;;;;;;-140.72;100.00;53032.13;5068756;28;20023;-69
2023/03/21 01:08:12;;;;;;;;;;;;;;;-140.72;100.00;53021.97;5075431;28;19924;-70
2023/03/21 01:10:47;;;;;;;;;;;;;;;-140.72;100.00;53064.59;5057377;28;19927;-69
2023/03/21 01:13:14;;;;;;;;;;;;;;;-140.72;100.00;53036.16;5074052;28;20058;-69
2023/03/21 01:15:50;;;;;;;;;;;;;;;-140.72;100.00;53026.03;5070846;28;19920;-69
2023/03/21 01:18:17;;;;;;;;;;;;;;;-140.72;100.00;53030.09;5074256;28;20005;-69
2023/03/21 01:20:42;;;;;;;;;;;;;;;-140.72;100.00;53046.31;5067424;28;20359;-69
2023/03/21 01:23:08;;;;;;;;;;;;;;;-140.72;100.00;53082.84;5070317;28;20011;-69
2023/03/21 01:25:33;;;;;;;;;;;;;;;-140.72;100.00;53028.06;5048540;28;19921;-69
2023/03/21 01:27:59;;;;;;;;;;;;;;;-140.72;100.00;53036.16;5050219;28;19999;-69
2023/03/21 01:30:24;;;;;;;;;;;;;;;-140.72;100.00;53034.16;5050604;28;19929;-69
2023/03/21 01:32:49;;;;;;;;;;;;;;;-140.72;100.00;53048.34;5051141;28;19920;-73
2023/03/21 01:35:15;;;;;;;;;;;;;;;-140.72;100.00;53028.06;5069783;28;20295;-69
2023/03/21 01:37:40;;;;;;;;;;;;;;;-140.72;100.00;53019.94;5071529;28;20030;-70
2023/03/21 01:40:11;;;;;;;;;;;;;;;-140.72;100.00;53019.94;5043930;28;19963;-69
2023/03/21 01:42:37;;;;;;;;;;;;;;;-140.72;100.00;53040.22;5067061;28;20024;-69
2023/03/21 01:45:04;;;;;;;;;;;;;;;-140.72;100.00;53060.53;5051327;28;20359;-69
2023/03/21 01:47:30;;;;;;;;;;;;;;;-140.72;100.00;53034.16;5067115;28;19920;-70
2023/03/21 01:49:56;;;;;;;;;;;;;;;-140.72;100.00;53056.47;5067844;28;20309;-69
2023/03/21 01:52:33;;;;;;;;;;;;;;;-140.72;100.00;53007.75;5051577;28;19927;-69
2023/03/21 01:55:00;;;;;;;;;;;;;;;-140.72;100.00;53019.94;5052633;28;19927;-69
2023/03/21 01:57:34;;;;;;;;;;;;;;;-140.72;100.00;53034.16;5049500;28;19943;-70
2023/03/21 02:00:11;;;;;;;;;;;;;;;-140.72;100.00;53056.47;5067684;28;19920;-69
2023/03/21 02:02:37;;;;;;;;;;;;;;;-140.72;100.00;53060.53;5069017;28;19931;-69
2023/03/21 02:05:02;;;;;;;;;;;;;;;-140.72;100.00;53040.22;5051613;28;20298;-69
2023/03/21 02:07:30;;;;;;;;;;;;;;;-140.72;100.00;53062.56;5052902;28;19921;-69
2023/03/21 02:09:56;;;;;;;;;;;;;;;-140.72;100.00;53011.81;5052115;28;20110;-69
2023/03/21 02:12:22;;;;;;;;;;;;;;;-140.72;100.00;52989.50;5051973;28;20667;-69
2023/03/21 02:14:47;;;;;;;;;;;;;;;-140.72;100.00;53050.38;5067260;28;19931;-69
2023/03/21 02:17:25;;;;;;;;;;;;;;;-140.72;100.00;53044.28;5069554;28;19927;-69
2023/03/21 02:20:07;;;;;;;;;;;;;;;-140.72;100.00;53066.63;5050453;28;19920;-69
2023/03/21 02:22:51;;;;;;;;;;;;;;;-140.72;100.00;53064.59;5051136;28;19920;-69
2023/03/21 02:25:19;;;;;;;;;;;;;;;-140.72;100.00;53036.16;5068974;28;19931;-69
2023/03/21 02:27:47;;;;;;;;;;;;;;;-140.72;100.00;53080.81;5066540;28;19920;-69
2023/03/21 02:30:31;;;;;;;;;;;;;;;-140.72;100.00;53040.22;5049812;28;19920;-69
2023/03/21 02:33:02;;;;;;;;;;;;;;;-140.72;100.00;53056.47;5051721;28;19932;-69
2023/03/21 02:35:43;;;;;;;;;;;;;;;-140.72;100.00;53013.84;5066002;28;19921;-69
2023/03/21 02:38:16;;;;;;;;;;;;;;;-140.72;100.00;53040.22;5069327;28;19973;-69
2023/03/21 02:40:47;;;;;;;;;;;;;;;-140.72;100.00;53070.69;5050387;28;20065;-69
2023/03/21 02:43:13;;;;;;;;;;;;;;;-140.72;100.00;53048.34;5067092;28;20386;-69
2023/03/21 02:45:47;;;;;;;;;;;;;;;-140.72;100.00;53064.59;5049269;28;19921;-69
2023/03/21 02:48:14;;;;;;;;;;;;;;;-140.72;100.00;53048.34;5050876;28;19921;-69
2023/03/21 02:50:46;;;;;;;;;;;;;;;-140.72;100.00;53068.66;5051958;28;20298;-69
2023/03/21 02:53:14;;;;;;;;;;;;;;;-140.72;100.00;53046.31;5051454;28;19935;-69
2023/03/21 02:55:41;;;;;;;;;;;;;;;-140.72;100.00;53021.97;5067841;28;19928;-69
2023/03/21 02:58:08;;;;;;;;;;;;;;;-140.72;100.00;53042.25;5050329;28;20386;-69
2023/03/21 03:00:34;;;;;;;;;;;;;;;-140.72;100.00;53074.72;5051165;28;19921;-69
2023/03/21 03:02:59;;;;;;;;;;;;;;;-140.72;100.00;53052.41;5068699;28;19943;-69
2023/03/21 03:05:29;;;;;;;;;;;;;;;-140.72;100.00;53086.91;5067206;28;19928;-69
2023/03/21 03:08:00;;;;;;;;;;;;;;;-140.72;100.00;53026.03;5070353;28;20286;-69
2023/03/21 03:10:25;;;;;;;;;;;;;;;-140.72;100.00;53032.13;5051488;28;19920;-69
2023/03/21 03:13:17;;;;;;;;;;;;;;;-140.72;100.00;53034.16;5050429;28;19928;-69
2023/03/21 03:18:55;;;;;;;;;;;;;;;-140.72;100.00;53068.66;5067465;28;19923;-69
2023/03/21 03:21:43;;;;;;;;;;;;;;;-140.72;100.00;53062.56;5064927;28;20395;-69
2023/03/21 03:24:46;;;;;;;;;;;;;;;-140.72;100.00;53048.34;5066393;28;19920;-69
2023/03/21 03:27:16;;;;;;;;;;;;;;;-140.72;100.00;53060.53;4951707;28;19923;-69
2023/03/21 03:30:04;;;;;;;;;;;;;;;-140.72;100.00;53093.00;5052558;28;19994;-69
2023/03/21 03:32:52;;;;;;;;;;;;;;;-140.72;100.00;53032.13;5049390;28;20298;-69
2023/03/21 03:35:19;;;;;;;;;;;;;;;-140.72;100.00;53036.16;5067907;28;19963;-69
2023/03/21 03:37:49;;;;;;;;;;;;;;;-140.72;100.00;53034.16;5072598;28;19980;-69
2023/03/21 03:40:20;;;;;;;;;;;;;;;-140.72;100.00;53015.88;5054113;28;19952;-69
2023/03/21 03:42:48;;;;;;;;;;;;;;;-140.72;100.00;53064.59;5070009;28;19924;-69
2023/03/21 03:45:14;;;;;;;;;;;;;;;-140.72;100.00;53060.53;5070678;28;19920;-69
2023/03/21 03:47:39;;;;;;;;;;;;;;;-140.72;100.00;53086.91;5068597;28;19927;-69
2023/03/21 03:50:15;;;;;;;;;;;;;;;-140.72;100.00;53042.25;5049069;28;19920;-69
2023/03/21 03:52:52;;;;;;;;;;;;;;;-140.72;100.00;53060.53;5065444;28;20023;-69
2023/03/21 03:55:20;;;;;;;;;;;;;;;-140.72;100.00;53044.28;5049368;28;19935;-69
2023/03/21 03:57:45;;;;;;;;;;;;;;;-140.72;100.00;53074.72;5064997;28;19966;-69
2023/03/21 04:00:12;;;;;;;;;;;;;;;-140.72;100.00;53072.69;5045523;28;19962;-69
2023/03/21 04:02:37;;;;;;;;;;;;;;;-140.72;100.00;53090.97;5064741;28;19924;-69
2023/03/21 04:05:04;;;;;;;;;;;;;;;-140.72;100.00;53036.16;5050045;28;19929;-69
2023/03/21 04:07:29;;;;;;;;;;;;;;;-140.72;100.00;53044.28;5066080;28;19920;-69
2023/03/21 04:09:55;;;;;;;;;;;;;;;-140.72;100.00;53044.28;5049794;28;19928;-69
2023/03/21 04:12:20;;;;;;;;;;;;;;;-140.72;100.00;53038.19;5068033;28;19927;-69
2023/03/21 04:14:45;;;;;;;;;;;;;;;-140.72;100.00;53030.09;5064043;28;19931;-69
2023/03/21 04:17:11;;;;;;;;;;;;;;;-140.72;100.00;53030.09;5050136;28;19932;-69
2023/03/21 04:19:36;;;;;;;;;;;;;;;-140.72;100.00;53072.69;5065217;28;20098;-69
2023/03/21 04:22:01;;;;;;;;;;;;;;;-140.72;100.00;53080.81;5063630;28;19921;-69
2023/03/21 04:24:26;;;;;;;;;;;;;;;-140.72;100.00;53019.94;5049459;28;20374;-69
2023/03/21 04:26:52;;;;;;;;;;;;;;;-140.72;100.00;53070.69;5051602;28;19929;-69
2023/03/21 04:29:19;;;;;;;;;;;;;;;-140.72;100.00;53044.28;5052529;28;20018;-69
2023/03/21 04:31:44;;;;;;;;;;;;;;;-140.72;100.00;53076.75;5053609;28;19927;-69
2023/03/21 04:34:11;;;;;;;;;;;;;;;-140.72;100.00;53054.44;5049838;28;20308;-69
2023/03/21 04:36:45;;;;;;;;;;;;;;;-140.72;100.00;53044.28;5071780;28;20011;-69
2023/03/21 04:39:11;;;;;;;;;;;;;;;-140.72;100.00;53074.72;5052803;28;19920;-69
2023/03/21 04:41:38;;;;;;;;;;;;;;;-140.72;100.00;53054.44;5049026;28;19977;-69
2023/03/21 04:44:03;;;;;;;;;;;;;;;-140.72;100.00;53040.22;5070071;28;20001;-69
2023/03/21 04:46:28;;;;;;;;;;;;;;;-140.72;100.00;53040.22;5071497;28;19966;-69
2023/03/21 04:48:54;;;;;;;;;;;;;;;-140.72;100.00;53080.81;5052448;28;19963;-69
2023/03/21 04:51:19;;;;;;;;;;;;;;;-140.72;100.00;53068.66;5052360;28;20047;-69
2023/03/21 04:53:45;;;;;;;;;;;;;;;-140.72;100.00;53050.38;5070246;28;19921;-69
2023/03/21 04:56:11;;;;;;;;;;;;;;;-140.72;100.00;53070.69;5068683;28;19927;-69
2023/03/21 04:58:36;;;;;;;;;;;;;;;-140.72;100.00;53078.78;5068388;28;19920;-69
2023/03/21 05:01:04;;;;;;;;;;;;;;;-140.72;100.00;53064.59;5063111;28;19927;-69
2023/03/21 05:03:33;;;;;;;;;;;;;;;-140.72;100.00;53054.44;5052496;28;20290;-69
2023/03/21 05:06:02;;;;;;;;;;;;;;;-140.72;100.00;53076.75;5068908;28;19929;-69
2023/03/21 05:08:27;;;;;;;;;;;;;;;-140.72;100.00;53082.84;5066963;28;20053;-69
2023/03/21 05:10:52;;;;;;;;;;;;;;;-140.72;100.00;53044.28;5050894;28;19951;-69
2023/03/21 05:13:17;;;;;;;;;;;;;;;-140.72;100.00;53036.16;5051339;28;20321;-68
2023/03/21 05:15:43;;;;;;;;;;;;;;;-140.72;100.00;53015.88;5069430;28;19942;-69
2023/03/21 05:18:11;;;;;;;;;;;;;;;-140.72;100.00;53028.06;5051008;28;19928;-69
2023/03/21 05:20:42;;;;;;;;;;;;;;;-140.72;100.00;53074.72;5070987;28;19931;-69
2023/03/21 05:23:11;;;;;;;;;;;;;;;-140.72;100.00;53080.81;5071350;28;19934;-72
2023/03/21 05:25:37;;;;;;;;;;;;;;;-140.72;100.00;53056.47;5067882;28;20950;-70
2023/03/21 05:28:03;;;;;;;;;;;;;;;-140.72;100.00;53072.69;5052515;28;20003;-71
2023/03/21 05:30:29;;;;;;;;;;;;;;;-140.72;100.00;53054.44;5051122;28;20309;-71
2023/03/21 05:32:54;;;;;;;;;;;;;;;-140.72;100.00;53038.19;5050840;28;19936;-71
2023/03/21 05:35:19;;;;;;;;;;;;;;;-140.72;100.00;53044.28;5068505;28;20393;-71
2023/03/21 05:37:45;;;;;;;;;;;;;;;-140.72;100.00;53072.69;5070431;28;19933;-70
2023/03/21 05:40:11;;;;;;;;;;;;;;;-140.72;100.00;53066.63;5046704;28;19935;-71
2023/03/21 05:42:36;;;;;;;;;;;;;;;-140.72;100.00;53062.56;5071066;28;20015;-71
2023/03/21 05:45:01;;;;;;;;;;;;;;;-140.72;100.00;53060.53;5053210;28;20379;-71
2023/03/21 05:47:27;;;;;;;;;;;;;;;-140.72;100.00;53044.28;5066897;28;20434;-71
2023/03/21 05:49:52;;;;;;;;;;;;;;;-140.72;100.00;53088.94;5062870;28;19924;-73
2023/03/21 05:52:17;;;;;;;;;;;;;;;-140.72;100.00;53042.25;5047847;28;19975;-73
2023/03/21 05:54:42;;;;;;;;;;;;;;;-140.72;100.00;53046.31;5052068;28;19966;-72
2023/03/21 05:57:08;;;;;;;;;;;;;;;-140.72;100.00;53082.84;5069457;28;20378;-72
2023/03/21 05:59:33;;;;;;;;;;;;;;;-140.72;100.00;53040.22;5068726;28;20665;-72
2023/03/21 06:01:58;;;;;;;;;;;;;;;-140.72;100.00;53086.91;5051257;28;20425;-73
2023/03/21 06:04:24;;;;;;;;;;;;;;;-140.72;100.00;53050.38;5067709;28;19928;-70
2023/03/21 06:06:51;;;;;;;;;;;;;;;-140.72;100.00;53093.00;5049272;28;20454;-69
2023/03/21 06:09:16;;;;;;;;;;;;;;;-140.72;100.00;53038.19;5048288;28;19928;-69
2023/03/21 06:11:44;;;;;;;;;;;;;;;-140.72;100.00;53036.16;5050502;28;19969;-70
2023/03/21 06:14:09;;;;;;;;;;;;;;;-140.72;100.00;53044.28;5069470;28;19927;-70
2023/03/21 06:16:35;;;;;;;;;;;;;;;-140.72;100.00;53080.81;5068624;28;20334;-70
2023/03/21 06:19:00;;;;;;;;;;;;;;;-140.72;100.00;53038.19;5050074;28;19924;-70
2023/03/21 06:21:25;;;;;;;;;;;;;;;-140.72;100.00;53056.47;5067472;28;19986;-70
2023/03/21 06:23:51;;;;;;;;;;;;;;;-140.72;100.00;53040.22;5066953;28;19920;-70
2023/03/21 06:26:21;;;;;;;;;;;;;;;-140.72;100.00;53015.88;5049415;28;19929;-70
2023/03/21 06:28:46;;;;;;;;;;;;;;;-140.72;100.00;53062.56;5066290;28;20017;-70
2023/03/21 06:31:12;;;;;;;;;;;;;;;-140.72;100.00;53011.81;5046106;28;21640;-70
2023/03/21 06:33:37;;;;;;;;;;;;;;;-140.72;100.00;53060.53;5067625;28;19928;-70
2023/03/21 06:36:03;;;;;;;;;;;;;;;-140.72;100.00;53032.13;5050584;28;20002;-71
2023/03/21 06:38:28;;;;;;;;;;;;;;;-140.72;100.00;53024.00;5049195;28;19920;-75
2023/03/21 06:40:53;;;;;;;;;;;;;;;-140.72;100.00;53054.44;5066248;28;20369;-73
2023/03/21 06:43:18;;;;;;;;;;;;;;;-140.72;100.00;53036.16;5072427;28;19916;-72
2023/03/21 06:45:44;;;;;;;;;;;;;;;-140.72;100.00;53068.66;5071722;28;19920;-71
2023/03/21 06:48:09;;;;;;;;;;;;;;;-140.72;100.00;53009.78;5073145;28;19944;-79
2023/03/21 06:50:35;;;;;;;;;;;;;;;-140.72;100.00;53052.41;5065772;28;20000;-78
2023/03/21 06:53:00;;;;;;;;;;;;;;;-140.72;100.00;53044.28;5073335;28;19928;-71
2023/03/21 06:55:27;;;;;;;;;;;;;;;-140.72;100.00;52995.59;5071045;28;19929;-74
2023/03/21 06:57:53;;;;;;;;;;;;;;;-140.72;100.00;53032.13;5072325;28;20011;-70
2023/03/21 07:00:18;;;;;;;;;;;;;;;-140.72;100.00;53076.75;5072785;28;20008;-71
2023/03/21 07:02:45;;;;;;;;;;;;;;;-140.72;100.00;53074.72;5055083;28;19920;-71
2023/03/21 07:05:10;;;;;;;;;;;;;;;-140.72;100.00;53068.66;5070648;28;20405;-71
2023/03/21 07:07:35;;;;;;;;;;;;;;;-140.72;100.00;53019.94;5067208;28;19968;-71
2023/03/21 07:10:22;;;;;;;;;;;;;;;-140.72;100.00;53080.81;5054703;28;19928;-70
2023/03/21 07:12:48;;;;;;;;;;;;;;;-140.72;100.00;53046.31;5073771;28;20004;-69
2023/03/21 07:15:13;;;;;;;;;;;;;;;-140.72;100.00;53076.75;5074219;28;19991;-69
2023/03/21 07:17:52;;;;;;;;;;;;;;;-140.72;100.00;53105.19;5056071;28;19917;-69
2023/03/21 07:20:17;;;;;;;;;;;;;;;-140.72;100.00;53007.75;5061119;28;20379;-70
2023/03/21 07:22:42;;;;;;;;;;;;;;;-140.72;100.00;53070.69;5069260;28;19917;-69
2023/03/21 07:25:08;;;;;;;;;;;;;;;-140.72;100.00;53050.38;5072959;28;19920;-70
2023/03/21 07:27:34;;;;;;;;;;;;;;;-140.72;100.00;53030.09;5072909;28;20390;-70
2023/03/21 07:29:59;;;;;;;;;;;;;;;-140.72;100.00;53048.34;5052342;28;19917;-69
2023/03/21 07:32:28;;;;;;;;;;;;;;;-140.72;100.00;53026.03;5069514;28;20404;-69
2023/03/21 07:34:54;;;;;;;;;;;;;;;-140.72;100.00;53082.84;5069308;28;19964;-69
2023/03/21 07:37:20;;;;;;;;;;;;;;;-140.72;100.00;53054.44;5069860;28;20343;-69
2023/03/21 07:39:45;;;;;;;;;;;;;;;-140.72;100.00;53062.56;5057234;28;19917;-70
2023/03/21 07:42:10;;;;;;;;;;;;;;;-140.72;100.00;53030.09;5051200;28;20358;-70
2023/03/21 07:44:36;;;;;;;;;;;;;;;-140.72;100.00;53019.94;5071629;28;19920;-70
2023/03/21 07:47:01;;;;;;;;;;;;;;;-140.72;100.00;53046.31;5055251;28;20036;-70
2023/03/21 07:49:26;;;;;;;;;;;;;;;-140.72;100.00;53019.94;5059968;28;20360;-70
2023/03/21 07:51:52;;;;;;;;;;;;;;;-140.72;100.00;53048.34;5054993;28;19974;-70
2023/03/21 07:54:19;;;;;;;;;;;;;;;-140.72;100.00;53048.34;5072042;28;19948;-70
2023/03/21 07:56:45;;;;;;;;;;;;;;;-140.72;100.00;53068.66;5060814;28;20392;-69
2023/03/21 07:59:10;;;;;;;;;;;;;;;-140.72;100.00;53030.09;5071657;28;20021;-69
2023/03/21 08:01:36;;;;;;;;;;;;;;;-140.72;100.00;53056.47;5071355;28;19924;-69
2023/03/21 08:04:01;;;;;;;;;;;;;;;-140.72;100.00;53038.19;5055186;28;20302;-70
2023/03/21 08:06:27;;;;;;;;;;;;;;;-140.72;100.00;53066.63;5060731;28;20294;-70
2023/03/21 08:08:52;;;;;;;;;;;;;;;-140.72;100.00;53017.91;5071852;28;19917;-70
2023/03/21 08:11:20;;;;;;;;;;;;;;;-140.72;100.00;53040.22;5071606;28;19916;-70
2023/03/21 08:13:45;;;;;;;;;;;;;;;-140.72;100.00;53058.50;5053828;28;19920;-70
2023/03/21 08:16:10;;;;;;;;;;;;;;;-140.72;100.00;53021.97;5070983;28;19977;-70
2023/03/21 08:18:36;;;;;;;;;;;;;;;-140.72;100.00;53015.88;5070446;28;19924;-70
2023/03/21 08:21:01;;;;;;;;;;;;;;;-140.72;100.00;53013.84;5071320;28;19923;-70
2023/03/21 08:23:27;;;;;;;;;;;;;;;-140.72;100.00;53042.25;5060694;28;19927;-70
2023/03/21 08:25:52;;;;;;;;;;;;;;;-140.72;100.00;52991.53;5072751;28;20434;-69
2023/03/21 08:28:18;;;;;;;;;;;;;;;-140.72;100.00;53005.72;5053511;28;19965;-70
2023/03/21 08:30:43;;;;;;;;;;;;;;;-140.72;100.00;53003.69;5054755;28;20260;-70
2023/03/21 08:33:08;;;;;;;;;;;;;;;-140.72;100.00;53015.88;5050508;28;19924;-70
2023/03/21 08:35:34;;;;;;;;;;;;;;;-140.72;100.00;52989.50;5054689;28;19916;-70
2023/03/21 08:38:01;;;;;;;;;;;;;;;-140.72;100.00;52999.66;5042693;28;19917;-70
2023/03/21 08:40:26;;;;;;;;;;;;;;;-140.72;100.00;53028.06;5071099;28;19982;-70
2023/03/21 08:42:51;;;;;;;;;;;;;;;-140.72;100.00;52979.34;5070759;28;19974;-70
2023/03/21 08:45:17;;;;;;;;;;;;;;;-140.72;100.00;52995.59;5072174;28;19917;-70
2023/03/21 08:47:42;;;;;;;;;;;;;;;-140.72;100.00;53001.66;5068138;28;19924;-70
2023/03/21 08:50:10;;;;;;;;;;;;;;;-140.72;100.00;53001.66;5064106;28;19925;-70
2023/03/21 08:52:36;;;;;;;;;;;;;;;-140.72;100.00;52991.53;5038003;28;19917;-70
2023/03/21 08:55:01;;;;;;;;;;;;;;;-140.72;100.00;52971.22;5064105;28;20392;-70
2023/03/21 08:57:27;;;;;;;;;;;;;;;-140.72;100.00;53021.97;5053717;28;20008;-70
2023/03/21 08:59:52;;;;;;;;;;;;;;;-140.72;100.00;52944.84;5072456;28;19931;-70
2023/03/21 09:02:18;;;;;;;;;;;;;;;-140.72;100.00;52987.47;5053722;28;20314;-70
2023/03/21 09:04:43;;;;;;;;;;;;;;;-140.72;100.00;52955.00;5071168;28;20404;-70
2023/03/21 09:07:11;;;;;;;;;;;;;;;-140.72;100.00;52967.16;5053555;28;19917;-70
2023/03/21 09:09:37;;;;;;;;;;;;;;;-140.72;100.00;52987.47;5054200;28;19967;-70
2023/03/21 09:12:02;;;;;;;;;;;;;;;-140.72;100.00;52971.22;5050819;28;19948;-70
2023/03/21 09:14:27;;;;;;;;;;;;;;;-140.72;100.00;52991.53;5068656;28;20274;-70
2023/03/21 09:16:52;;;;;;;;;;;;;;;-140.72;100.00;52946.88;5074178;28;19916;-70
2023/03/21 09:19:18;;;;;;;;;;;;;;;-140.72;100.00;52952.97;5057820;28;20378;-70
2023/03/21 09:21:43;;;;;;;;;;;;;;;-140.72;100.00;52973.25;5072882;28;19965;-70
2023/03/21 09:24:11;;;;;;;;;;;;;;;-140.72;100.00;52965.16;5057785;28;20054;-70
2023/03/21 09:26:36;;;;;;;;;;;;;;;-140.72;100.00;52944.84;5057395;28;20030;-70
2023/03/21 09:29:03;;;;;;;;;;;;;;;-140.72;100.00;52926.59;5057846;28;19951;-70
2023/03/21 09:31:29;;;;;;;;;;;;;;;-140.72;100.00;52955.00;5073744;28;20402;-70
2023/03/21 09:33:56;;;;;;;;;;;;;;;-140.72;100.00;52993.56;5065278;28;20015;-70
2023/03/21 09:36:25;;;;;;;;;;;;;;;-140.72;100.00;52948.91;5075514;28;19916;-70
2023/03/21 09:38:50;;;;;;;;;;;;;;;-140.72;100.00;52965.16;5057506;28;19916;-69
2023/03/21 09:41:23;;;;;;;;;;;;;;;-140.72;100.00;52957.03;5055694;28;19928;-69
2023/03/21 09:44:06;;;;;;;;;;;;;;;-140.72;100.00;52995.59;5075451;28;19916;-69
2023/03/21 09:46:35;;;;;;;;;;;;;;;-140.72;100.00;52979.34;5064201;28;19916;-69
2023/03/21 09:49:06;;;;;;;;;;;;;;;-140.72;100.00;52950.94;5055952;28;19916;-69
2023/03/21 09:51:33;;;;;;;;;;;;;;;-140.72;100.00;52942.81;5064802;28;19923;-69
2023/03/21 09:54:02;;;;;;;;;;;;;;;-140.72;100.00;52928.63;5074216;28;19924;-69
2023/03/21 09:56:28;;;;;;;;;;;;;;;-140.72;100.00;52965.16;5075018;28;19924;-69
2023/03/21 09:58:57;;;;;;;;;;;;;;;-140.72;100.00;52965.16;5054044;28;19917;-69
2023/03/21 10:01:28;;;;;;;;;;;;;;;-140.72;100.00;52971.22;5065511;28;19916;-69
2023/03/21 10:03:55;;;;;;;;;;;;;;;-140.72;100.00;52926.59;5073111;28;19951;-69
2023/03/21 10:06:27;;;;;;;;;;;;;;;-140.72;100.00;52952.97;5057570;28;19917;-70
2023/03/21 10:08:54;;;;;;;;;;;;;;;-140.72;100.00;52950.94;5056239;28;19966;-70
2023/03/21 10:11:38;;;;;;;;;;;;;;;-140.72;100.00;52926.59;5057089;28;19921;-70
2023/03/21 10:14:07;;;;;;;;;;;;;;;-140.72;100.00;52934.69;5062844;28;19924;-70
2023/03/21 10:16:40;;;;;;;;;;;;;;;-140.72;100.00;52967.16;5074641;28;19916;-70
2023/03/21 10:19:16;;;;;;;;;;;;;;;-140.72;100.00;52934.69;5056989;28;20007;-71
2023/03/21 10:21:42;;;;;;;;;;;;;;;-140.72;100.00;52932.66;5073359;28;19920;-70
2023/03/21 10:24:10;;;;;;;;;;;;;;;-140.72;100.00;52928.63;5048348;28;19999;-70
2023/03/21 10:26:36;;;;;;;;;;;;;;;-140.72;100.00;52938.75;5054714;28;19925;-70
2023/03/21 10:29:01;;;;;;;;;;;;;;;-140.72;100.00;52946.88;5074532;28;20028;-70
2023/03/21 10:31:28;;;;;;;;;;;;;;;-140.72;100.00;52942.81;5055891;28;20350;-70
2023/03/21 10:33:55;;;;;;;;;;;;;;;-140.72;100.00;52918.47;5064008;28;20011;-70
2023/03/21 10:36:24;;;;;;;;;;;;;;;-140.72;100.00;52942.81;5051921;28;19932;-70
2023/03/21 10:38:52;;;;;;;;;;;;;;;-140.72;100.00;52975.28;5056614;28;19916;-70
2023/03/21 10:41:19;;;;;;;;;;;;;;;-140.72;100.00;52922.53;5073218;28;19917;-70
2023/03/21 10:43:49;;;;;;;;;;;;;;;-140.72;100.00;52902.22;5056349;28;20011;-70
2023/03/21 10:46:20;;;;;;;;;;;;;;;-140.72;100.00;52971.22;5050974;28;20003;-70
2023/03/21 10:48:49;;;;;;;;;;;;;;;-140.72;100.00;52946.88;5049772;28;20431;-70
2023/03/21 10:51:17;;;;;;;;;;;;;;;-140.72;100.00;52938.75;5073271;28;20058;-70
2023/03/21 10:53:46;;;;;;;;;;;;;;;-140.72;100.00;52975.28;5055521;28;19916;-70
2023/03/21 10:56:11;;;;;;;;;;;;;;;-140.72;100.00;52928.63;5056240;28;19917;-70
2023/03/21 10:58:41;;;;;;;;;;;;;;;-140.72;100.00;52904.25;5073740;28;19924;-70
2023/03/21 11:01:09;;;;;;;;;;;;;;;-140.72;100.00;52946.88;5073917;28;19928;-70
2023/03/21 11:03:36;;;;;;;;;;;;;;;-140.72;100.00;52924.56;5042233;28;19917;-70
2023/03/21 11:06:07;;;;;;;;;;;;;;;-140.72;100.00;52948.91;5056049;28;20021;-70
2023/03/21 11:08:47;;;;;;;;;;;;;;;-140.72;100.00;52910.34;5054854;28;20454;-69
2023/03/21 11:11:18;;;;;;;;;;;;;;;-140.72;100.00;52888.03;5055175;28;19923;-70
2023/03/21 11:13:44;;;;;;;;;;;;;;;-140.72;100.00;52924.56;5072727;28;19974;-70
2023/03/21 11:16:09;;;;;;;;;;;;;;;-140.72;100.00;52896.16;5055637;28;19917;-70
2023/03/21 11:18:39;;;;;;;;;;;;;;;-140.72;100.00;52940.78;5073042;28;19947;-69
2023/03/21 11:21:06;;;;;;;;;;;;;;;-140.72;100.00;52926.59;5073166;28;19970;-69
2023/03/21 11:23:33;;;;;;;;;;;;;;;-140.72;100.00;52928.63;5055204;28;19920;-69
2023/03/21 11:25:59;;;;;;;;;;;;;;;-140.72;100.00;52938.75;5055558;28;20003;-69
2023/03/21 11:28:32;;;;;;;;;;;;;;;-140.72;100.00;52910.34;5054478;28;19923;-69
2023/03/21 11:30:58;;;;;;;;;;;;;;;-140.72;100.00;52902.22;5054113;28;19916;-69
2023/03/21 11:33:27;;;;;;;;;;;;;;;-140.72;100.00;52910.34;5071672;28;19961;-69
2023/03/21 11:35:58;;;;;;;;;;;;;;;-140.72;100.00;52912.38;5043182;28;19928;-69
2023/03/21 11:38:26;;;;;;;;;;;;;;;-140.72;100.00;52869.75;5072516;28;19916;-70
2023/03/21 11:40:53;;;;;;;;;;;;;;;-140.72;100.00;52837.28;5072585;28;19923;-70
2023/03/21 11:43:18;;;;;;;;;;;;;;;-140.72;100.00;52894.13;5073180;28;20283;-70
2023/03/21 11:45:57;;;;;;;;;;;;;;;-140.72;100.00;52835.25;5054323;28;19923;-70
2023/03/21 11:48:22;;;;;;;;;;;;;;;-140.72;100.00;52851.50;5072348;28;20374;-70
2023/03/21 11:50:49;;;;;;;;;;;;;;;-140.72;100.00;52904.25;5054413;28;19917;-70
2023/03/21 11:53:17;;;;;;;;;;;;;;;-140.72;100.00;52898.16;5072631;28;19917;-70
2023/03/21 11:55:51;;;;;;;;;;;;;;;-140.72;100.00;52869.75;5051275;28;19920;-69
2023/03/21 11:58:25;;;;;;;;;;;;;;;-140.72;100.00;52871.78;5064919;28;19921;-70
2023/03/21 12:01:09;;;;;;;;;;;;;;;-140.72;100.00;52920.50;5072319;28;19964;-70
2023/03/21 12:03:35;;;;;;;;;;;;;;;-140.72;100.00;52916.44;5071540;28;19923;-69
2023/03/21 12:06:02;;;;;;;;;;;;;;;-140.72;100.00;52906.28;5043018;28;19916;-69
2023/03/21 12:08:50;;;;;;;;;;;;;;;-140.72;100.00;52902.22;5054148;28;19923;-70
2023/03/21 12:11:18;;;;;;;;;;;;;;;-140.72;100.00;52725.69;5054092;28;19943;-69
2023/03/21 12:13:52;;;;;;;;;;;;;;;-140.72;100.00;52705.38;5072051;28;20267;-70
2023/03/21 12:16:42;;;;;;;;;;;;;;;-140.72;100.00;52652.63;5054106;28;19920;-70
2023/03/21 12:19:11;;;;;;;;;;;;;;;-140.72;100.00;52748.00;5035788;28;20378;-70
2023/03/21 12:21:55;;;;;;;;;;;;;;;-140.72;100.00;52796.72;5049893;28;19977;-70
2023/03/21 12:24:23;;;;;;;;;;;;;;;-140.72;100.00;52871.78;5072237;28;20351;-70
2023/03/21 12:26:48;;;;;;;;;;;;;;;-140.72;100.00;52904.25;5071257;28;19917;-70
2023/03/21 12:29:16;;;;;;;;;;;;;;;-140.72;100.00;52914.41;5054933;28;19924;-70